Time;durP1;ratioP1;P1;durP2;ratioP2;P2;SDS_P1;SDS_P2;PMS_P1;PMS_P2;Temp;Humidity;BMP_temperature;BMP_pressure;BME280_temperature;BME280_humidity;BME280_pressure;Samples;Min_cycle;Max_cycle;Signal;HPM_P1;HPM_P2
2022/01/10 00:00:14;;;;;;;12.93;5.93;;;1.60;99.90;;;;;;6161163;23;20021;-82
2022/01/10 00:02:42;;;;;;;14.60;6.07;;;1.60;99.90;;;;;;6161338;23;20028;-83
2022/01/10 00:05:08;;;;;;;15.00;6.65;;;1.60;99.90;;;;;;6182218;23;20439;-82
2022/01/10 00:07:34;;;;;;;17.92;6.97;;;1.60;99.90;;;;;;6181668;23;20045;-82
2022/01/10 00:10:02;;;;;;;18.60;6.20;;;1.50;99.90;;;;;;6180757;23;20024;-82
2022/01/10 00:12:28;;;;;;;15.55;6.80;;;1.50;99.90;;;;;;6155783;23;20084;-82
2022/01/10 00:14:53;;;;;;;14.15;5.85;;;1.50;99.90;;;;;;6180383;23;20502;-82
2022/01/10 00:17:19;;;;;;;17.52;7.15;;;1.50;99.90;;;;;;6181691;23;20016;-82
2022/01/10 00:19:45;;;;;;;20.55;7.65;;;1.50;99.90;;;;;;6181865;23;20371;-83
2022/01/10 00:22:11;;;;;;;17.67;6.97;;;1.50;99.90;;;;;;6179585;23;20021;-82
2022/01/10 00:24:38;;;;;;;18.67;6.80;;;1.50;99.90;;;;;;6180834;23;20029;-82
2022/01/10 00:27:04;;;;;;;20.00;7.18;;;1.40;99.90;;;;;;6156107;23;20060;-82
2022/01/10 00:29:29;;;;;;;17.63;7.13;;;1.40;99.90;;;;;;6181262;23;20009;-83
2022/01/10 00:31:57;;;;;;;18.83;6.35;;;1.40;99.90;;;;;;6156047;23;20067;-82
2022/01/10 00:34:24;;;;;;;18.65;7.57;;;1.40;99.90;;;;;;6179703;23;20016;-83
2022/01/10 00:36:50;;;;;;;18.67;7.18;;;1.40;99.90;;;;;;6183133;23;20080;-82
2022/01/10 00:39:16;;;;;;;19.73;6.78;;;1.30;99.90;;;;;;6180044;23;20328;-83
2022/01/10 00:41:42;;;;;;;19.42;7.70;;;1.30;99.90;;;;;;6181988;23;20048;-82
2022/01/10 00:44:09;;;;;;;16.17;6.68;;;1.30;99.90;;;;;;6181558;23;20020;-82
2022/01/10 00:46:35;;;;;;;23.80;7.88;;;1.30;99.90;;;;;;6157959;23;20036;-83
2022/01/10 00:49:01;;;;;;;21.52;7.55;;;1.30;99.90;;;;;;6183036;23;20017;-82
2022/01/10 00:51:27;;;;;;;19.35;7.72;;;1.30;99.90;;;;;;6183656;23;20055;-82
2022/01/10 00:53:52;;;;;;;20.77;8.07;;;1.20;99.90;;;;;;6157685;23;20021;-82
2022/01/10 00:56:19;;;;;;;20.77;7.88;;;1.20;99.90;;;;;;6182227;23;20473;-82
2022/01/10 00:58:45;;;;;;;20.25;8.00;;;1.20;99.90;;;;;;6157751;23;20044;-82
2022/01/10 01:01:11;;;;;;;18.30;7.30;;;1.20;99.90;;;;;;6182338;23;20017;-82
2022/01/10 01:03:37;;;;;;;16.63;7.22;;;1.20;99.90;;;;;;6186887;23;20024;-82
2022/01/10 01:06:03;;;;;;;21.83;7.85;;;1.20;99.90;;;;;;6187329;23;20008;-82
2022/01/10 01:08:30;;;;;;;22.52;7.90;;;1.20;99.90;;;;;;6185660;23;20017;-82
2022/01/10 01:13:39;;;;;;;17.50;7.15;;;1.10;99.90;;;;;;6186598;23;20435;-82
2022/01/10 01:24:08;;;;;;;18.48;7.30;;;1.00;99.90;;;;;;6186452;23;20447;-82
2022/01/10 01:26:45;;;;;;;14.05;7.20;;;1.00;99.90;;;;;;6186943;23;20008;-83
2022/01/10 01:29:15;;;;;;;17.25;8.90;;;1.00;99.90;;;;;;6187722;23;20443;-82
2022/01/10 01:31:41;;;;;;;19.83;7.28;;;1.00;99.90;;;;;;6162904;23;20009;-82
2022/01/10 01:34:07;;;;;;;22.00;9.52;;;1.00;99.90;;;;;;6186316;23;20530;-82
2022/01/10 01:36:34;;;;;;;18.65;7.80;;;1.00;99.90;;;;;;6161831;23;20040;-82
2022/01/10 01:39:05;;;;;;;21.35;8.18;;;1.00;99.90;;;;;;6187274;23;20032;-81
2022/01/10 01:44:00;;;;;;;16.92;8.13;;;0.90;99.90;;;;;;6187728;23;20056;-82
2022/01/10 01:46:26;;;;;;;19.77;7.80;;;0.90;99.90;;;;;;6162415;23;20012;-83
2022/01/10 01:48:53;;;;;;;21.83;7.78;;;0.90;99.90;;;;;;6163567;23;20019;-82
2022/01/10 01:51:20;;;;;;;23.27;9.32;;;0.90;99.90;;;;;;6163649;23;20012;-82
2022/01/10 01:53:47;;;;;;;21.35;8.05;;;0.90;99.90;;;;;;6160636;23;20040;-83
2022/01/10 01:56:13;;;;;;;26.05;8.13;;;0.90;99.90;;;;;;6187164;23;20036;-82
2022/01/10 01:58:40;;;;;;;23.25;7.82;;;0.90;99.90;;;;;;6162575;23;20044;-82
2022/01/10 02:01:07;;;;;;;18.83;9.02;;;0.90;99.90;;;;;;6187048;23;20091;-82
2022/01/10 02:03:37;;;;;;;20.88;8.63;;;0.80;99.90;;;;;;6186340;23;20024;-82
2022/01/10 02:06:03;;;;;;;15.65;7.70;;;0.90;99.90;;;;;;6162349;23;20055;-82
2022/01/10 02:08:29;;;;;;;19.75;7.53;;;0.90;99.90;;;;;;6186541;23;20482;-82
2022/01/10 02:10:55;;;;;;;17.20;6.90;;;0.80;99.90;;;;;;6185438;23;20008;-82
2022/01/10 02:13:20;;;;;;;26.38;9.65;;;0.80;99.90;;;;;;6161571;23;20515;-82
2022/01/10 02:15:56;;;;;;;21.05;8.93;;;0.80;99.90;;;;;;6161294;23;20008;-82
2022/01/10 02:18:22;;;;;;;24.27;10.35;;;0.80;99.90;;;;;;6186042;23;20009;-82
2022/01/10 02:20:48;;;;;;;19.98;8.50;;;0.80;99.90;;;;;;6158995;23;20147;-82
2022/01/10 02:23:15;;;;;;;18.52;8.18;;;0.80;99.90;;;;;;6184773;23;20044;-82
2022/01/10 02:25:41;;;;;;;32.35;11.13;;;0.80;99.90;;;;;;6183700;23;20043;-82
2022/01/10 02:28:07;;;;;;;23.55;8.23;;;0.80;99.90;;;;;;6160775;23;20062;-82
2022/01/10 02:30:33;;;;;;;20.60;8.95;;;0.80;99.90;;;;;;6185985;23;20016;-83
2022/01/10 02:33:01;;;;;;;20.45;8.90;;;0.80;99.90;;;;;;6160624;23;20054;-82
2022/01/10 02:35:31;;;;;;;23.13;8.75;;;0.80;99.90;;;;;;6185114;23;20020;-82
2022/01/10 02:37:58;;;;;;;21.42;8.75;;;0.80;99.90;;;;;;6160479;23;20016;-82
2022/01/10 02:40:26;;;;;;;21.05;10.60;;;0.80;99.90;;;;;;6183938;23;20300;-82
2022/01/10 02:42:53;;;;;;;19.83;8.90;;;0.80;99.90;;;;;;6185206;23;20032;-82
2022/01/10 02:45:19;;;;;;;33.03;9.43;;;0.80;99.90;;;;;;6185748;23;20017;-82
2022/01/10 02:47:45;;;;;;;24.48;9.38;;;0.80;99.90;;;;;;6186111;23;20008;-82
2022/01/10 02:50:12;;;;;;;21.45;9.10;;;0.80;99.90;;;;;;6160115;23;20071;-82
2022/01/10 02:52:38;;;;;;;18.02;7.70;;;0.80;99.90;;;;;;6185758;23;20024;-82
2022/01/10 02:55:06;;;;;;;16.85;6.75;;;0.80;99.90;;;;;;6184404;23;20013;-82
2022/01/10 02:57:33;;;;;;;21.55;8.73;;;0.80;99.90;;;;;;6161973;23;20056;-82
2022/01/10 03:00:04;;;;;;;23.70;8.85;;;0.80;99.90;;;;;;6159824;23;20016;-82
2022/01/10 03:02:33;;;;;;;26.08;8.90;;;0.80;99.90;;;;;;6160606;23;20017;-82
2022/01/10 03:04:59;;;;;;;26.40;8.80;;;0.80;99.90;;;;;;6153950;23;20384;-82
2022/01/10 03:07:25;;;;;;;20.73;9.68;;;0.80;99.90;;;;;;6180630;23;20063;-82
2022/01/10 03:09:51;;;;;;;16.38;7.75;;;0.80;99.90;;;;;;6179282;23;20474;-82
2022/01/10 03:12:17;;;;;;;18.40;8.48;;;0.80;99.90;;;;;;6179656;23;20617;-82
2022/01/10 03:14:44;;;;;;;18.83;7.55;;;0.70;99.90;;;;;;6154938;23;20009;-81
2022/01/10 03:17:10;;;;;;;26.60;10.02;;;0.70;99.90;;;;;;6181210;23;20041;-82
2022/01/10 03:19:40;;;;;;;19.90;7.93;;;0.80;99.90;;;;;;6180673;23;20039;-81
2022/01/10 03:22:07;;;;;;;20.65;8.93;;;0.80;99.90;;;;;;6180793;23;20444;-82
2022/01/10 03:24:34;;;;;;;17.63;8.40;;;0.70;99.90;;;;;;6179698;23;20506;-82
2022/01/10 03:26:59;;;;;;;22.75;8.05;;;0.70;99.90;;;;;;6156194;23;20044;-82
2022/01/10 03:29:25;;;;;;;20.38;8.05;;;0.70;99.90;;;;;;6179826;23;20013;-82
2022/01/10 03:31:51;;;;;;;19.95;7.70;;;0.70;99.90;;;;;;6157069;23;20013;-82
2022/01/10 03:34:17;;;;;;;16.00;7.25;;;0.70;99.90;;;;;;6180554;23;20024;-82
2022/01/10 03:36:43;;;;;;;22.13;6.90;;;0.70;99.90;;;;;;6156431;23;20016;-82
2022/01/10 03:39:10;;;;;;;17.77;7.00;;;0.70;99.90;;;;;;6179703;23;20482;-82
2022/01/10 03:41:36;;;;;;;18.98;6.72;;;0.60;99.90;;;;;;6155111;23;20012;-82
2022/01/10 03:44:03;;;;;;;25.83;8.93;;;0.60;99.90;;;;;;6180065;23;20052;-82
2022/01/10 03:46:32;;;;;;;20.85;8.82;;;0.60;99.90;;;;;;6181052;23;20020;-82
2022/01/10 03:48:58;;;;;;;24.08;7.70;;;0.60;99.90;;;;;;6155457;23;20333;-81
2022/01/10 03:51:24;;;;;;;16.23;7.40;;;0.60;99.90;;;;;;6180806;23;20017;-82
2022/01/10 03:53:50;;;;;;;20.88;7.72;;;0.60;99.90;;;;;;6179762;23;20021;-82
2022/01/10 03:56:15;;;;;;;21.92;8.75;;;0.60;99.90;;;;;;6154622;23;20009;-82
2022/01/10 03:58:41;;;;;;;24.20;8.48;;;0.60;99.90;;;;;;6179625;23;20049;-81
2022/01/10 04:01:08;;;;;;;23.42;8.85;;;0.60;99.90;;;;;;6156357;23;20017;-81
2022/01/10 04:03:35;;;;;;;18.73;8.07;;;0.60;99.90;;;;;;6184635;23;20020;-82
2022/01/10 04:06:01;;;;;;;17.33;8.80;;;0.50;99.90;;;;;;6159071;23;20021;-82
2022/01/10 04:08:26;;;;;;;22.33;8.85;;;0.50;99.90;;;;;;6159591;23;20015;-82
2022/01/10 04:10:53;;;;;;;17.65;7.57;;;0.50;99.90;;;;;;6184586;23;20016;-81
2022/01/10 04:13:18;;;;;;;24.70;10.25;;;0.50;99.90;;;;;;6184624;23;20370;-81
2022/01/10 04:15:44;;;;;;;18.15;8.40;;;0.40;99.90;;;;;;6159233;23;20098;-82
2022/01/10 04:18:10;;;;;;;19.25;8.45;;;0.40;99.90;;;;;;6160814;23;20013;-82
2022/01/10 04:20:35;;;;;;;20.65;9.68;;;0.40;99.90;;;;;;6160909;23;20094;-82
2022/01/10 04:23:02;;;;;;;17.38;8.15;;;0.40;99.90;;;;;;6184930;23;20382;-81
2022/01/10 04:25:27;;;;;;;22.42;9.20;;;0.40;99.90;;;;;;6184783;23;20024;-82
2022/01/10 04:27:53;;;;;;;21.88;8.63;;;0.40;99.90;;;;;;6185950;23;20435;-82
2022/01/10 04:30:19;;;;;;;18.00;8.50;;;0.40;99.90;;;;;;6185426;23;20016;-82
2022/01/10 04:32:45;;;;;;;14.30;6.40;;;0.40;99.90;;;;;;6186754;23;20179;-82
2022/01/10 04:35:11;;;;;;;20.00;9.00;;;0.30;99.90;;;;;;6159612;23;20052;-82
2022/01/10 04:37:37;;;;;;;17.40;7.20;;;0.40;99.90;;;;;;6185815;23;20016;-82
2022/01/10 04:40:04;;;;;;;18.58;9.10;;;0.30;99.90;;;;;;6160315;23;20012;-82
2022/01/10 04:42:29;;;;;;;17.23;8.10;;;0.30;99.90;;;;;;6161146;23;20020;-82
2022/01/10 04:44:55;;;;;;;23.58;8.77;;;0.30;99.90;;;;;;6186610;23;20498;-82
2022/01/10 04:47:21;;;;;;;12.05;7.00;;;0.30;99.90;;;;;;6185494;23;20412;-82
2022/01/10 04:52:24;;;;;;;25.45;9.68;;;0.30;99.90;;;;;;6186576;23;20020;-82
2022/01/10 04:54:50;;;;;;;18.83;7.05;;;0.30;99.90;;;;;;6184007;23;20031;-81
2022/01/10 04:57:15;;;;;;;17.30;9.35;;;0.30;99.90;;;;;;6160414;23;20031;-82
2022/01/10 04:59:41;;;;;;;23.10;9.50;;;0.30;99.90;;;;;;6184972;23;20044;-82
2022/01/10 05:02:07;;;;;;;12.60;7.15;;;0.30;99.90;;;;;;6185691;23;20406;-82
2022/01/10 05:04:33;;;;;;;14.60;7.15;;;0.30;99.90;;;;;;6159955;23;20379;-81
2022/01/10 05:06:59;;;;;;;17.20;9.32;;;0.20;99.90;;;;;;6185800;23;20070;-81
2022/01/10 05:09:24;;;;;;;20.85;8.15;;;0.20;99.90;;;;;;6184362;23;20020;-81
2022/01/10 05:11:50;;;;;;;19.08;8.68;;;0.20;99.90;;;;;;6184817;23;20009;-81
2022/01/10 05:14:16;;;;;;;17.67;7.88;;;0.20;99.90;;;;;;6185912;23;20526;-82
2022/01/10 05:16:43;;;;;;;23.00;9.30;;;0.20;99.90;;;;;;6186066;23;20386;-81
2022/01/10 05:19:08;;;;;;;26.00;8.63;;;0.20;99.90;;;;;;6160436;23;20052;-82
2022/01/10 05:21:34;;;;;;;26.55;10.30;;;0.20;99.90;;;;;;6160512;23;20347;-82
2022/01/10 05:24:00;;;;;;;23.60;9.68;;;0.20;99.90;;;;;;6159643;23;20017;-82
2022/01/10 05:26:25;;;;;;;17.05;7.65;;;0.20;99.90;;;;;;6185196;23;20016;-82
2022/01/10 05:28:59;;;;;;;15.75;7.07;;;0.20;99.90;;;;;;6186942;23;20352;-81
2022/01/10 05:31:25;;;;;;;21.17;9.05;;;0.20;99.90;;;;;;6187681;23;20020;-81
2022/01/10 05:33:51;;;;;;;17.73;7.80;;;0.20;99.90;;;;;;6187646;23;20015;-82
2022/01/10 05:36:17;;;;;;;29.33;9.93;;;0.20;99.90;;;;;;6187212;23;20103;-82
2022/01/10 05:38:42;;;;;;;21.58;9.07;;;0.20;99.90;;;;;;6186519;23;20019;-82
2022/01/10 05:41:08;;;;;;;18.08;9.50;;;0.20;99.90;;;;;;6186892;23;20016;-82
2022/01/10 05:43:34;;;;;;;22.55;11.00;;;0.30;99.90;;;;;;6163386;23;20013;-81
2022/01/10 05:45:59;;;;;;;29.20;10.63;;;0.30;99.90;;;;;;6187855;23;20436;-81
2022/01/10 05:48:28;;;;;;;28.05;10.65;;;0.30;99.90;;;;;;6187548;23;20013;-81
2022/01/10 05:50:54;;;;;;;23.23;10.75;;;0.30;99.90;;;;;;6187616;23;20013;-82
2022/01/10 05:53:20;;;;;;;20.60;10.57;;;0.30;99.90;;;;;;6186846;23;20088;-82
2022/01/10 05:55:46;;;;;;;20.15;8.85;;;0.40;99.90;;;;;;6162560;23;19996;-81
2022/01/10 05:58:12;;;;;;;25.25;11.15;;;0.30;99.90;;;;;;6187516;23;20005;-81
2022/01/10 06:00:38;;;;;;;30.80;11.18;;;0.30;99.90;;;;;;6161820;23;20332;-81
2022/01/10 06:03:04;;;;;;;22.80;12.07;;;0.30;99.90;;;;;;6187986;23;20036;-82
2022/01/10 06:05:33;;;;;;;25.85;11.05;;;0.40;99.90;;;;;;6187215;23;20021;-81
2022/01/10 06:07:59;;;;;;;23.90;10.52;;;0.30;99.90;;;;;;6161813;23;20013;-81
2022/01/10 06:10:25;;;;;;;25.65;11.18;;;0.30;99.90;;;;;;6185549;23;20506;-82
2022/01/10 06:12:51;;;;;;;24.77;11.70;;;0.30;99.90;;;;;;6161597;23;20013;-81
2022/01/10 06:15:17;;;;;;;26.27;10.73;;;0.30;99.90;;;;;;6185409;23;20511;-82
2022/01/10 06:17:44;;;;;;;22.25;9.45;;;0.30;99.90;;;;;;6186394;23;20091;-82
2022/01/10 06:20:10;;;;;;;30.42;11.30;;;0.40;99.90;;;;;;6185694;23;20023;-81
2022/01/10 06:22:35;;;;;;;30.55;11.32;;;0.40;99.90;;;;;;6161250;23;20012;-81
2022/01/10 06:25:02;;;;;;;22.13;9.85;;;0.30;99.90;;;;;;6160897;23;20017;-82
2022/01/10 06:27:27;;;;;;;29.40;11.80;;;0.30;99.90;;;;;;6185637;23;20016;-82
2022/01/10 06:29:53;;;;;;;33.70;12.85;;;0.30;99.90;;;;;;6160896;23;20016;-81
2022/01/10 06:32:19;;;;;;;24.73;11.20;;;0.30;99.90;;;;;;6185955;23;20012;-81
2022/01/10 06:34:44;;;;;;;25.55;9.93;;;0.30;99.90;;;;;;6180249;23;20012;-81
2022/01/10 06:37:10;;;;;;;18.73;9.35;;;0.30;99.90;;;;;;6180950;23;52475;-82
2022/01/10 06:39:36;;;;;;;19.58;9.45;;;0.30;99.90;;;;;;6179080;23;67891;-81
2022/01/10 06:42:02;;;;;;;16.65;8.20;;;0.30;99.90;;;;;;6162107;23;20049;-82
2022/01/10 06:44:27;;;;;;;17.92;9.35;;;0.30;99.90;;;;;;6186476;23;20071;-82
2022/01/10 06:46:53;;;;;;;18.30;8.55;;;0.30;99.90;;;;;;6162687;23;20474;-82
2022/01/10 06:49:19;;;;;;;16.85;8.65;;;0.30;99.90;;;;;;6186880;23;20043;-82
2022/01/10 06:51:45;;;;;;;14.40;7.40;;;0.30;99.90;;;;;;6162548;23;20459;-82
2022/01/10 06:54:11;;;;;;;26.55;11.70;;;0.30;99.90;;;;;;6161589;23;20028;-81
2022/01/10 06:56:36;;;;;;;20.92;11.15;;;0.30;99.90;;;;;;6162801;23;20012;-81
2022/01/10 06:59:02;;;;;;;24.85;11.07;;;0.40;99.90;;;;;;6185520;23;20012;-82
2022/01/10 07:01:29;;;;;;;24.60;11.23;;;0.40;99.90;;;;;;6183939;23;20055;-82
2022/01/10 07:03:56;;;;;;;25.10;12.60;;;0.40;99.90;;;;;;6161658;23;20106;-83
2022/01/10 07:06:21;;;;;;;25.95;11.90;;;0.50;99.90;;;;;;6185776;23;20100;-82
2022/01/10 07:08:47;;;;;;;25.75;10.73;;;0.50;99.90;;;;;;6184585;23;20044;-83
2022/01/10 07:11:13;;;;;;;27.95;11.82;;;0.50;99.90;;;;;;6185324;23;20096;-82
2022/01/10 07:13:38;;;;;;;24.77;12.13;;;0.50;99.90;;;;;;6160647;23;20017;-82
2022/01/10 07:16:04;;;;;;;25.73;12.02;;;0.50;99.90;;;;;;6182945;23;20017;-82
2022/01/10 07:18:30;;;;;;;24.83;10.95;;;0.50;99.90;;;;;;6184875;23;20019;-83
2022/01/10 07:20:55;;;;;;;27.73;11.70;;;0.50;99.90;;;;;;6186107;23;20004;-83
2022/01/10 07:23:24;;;;;;;28.10;12.23;;;0.40;99.90;;;;;;6157389;23;20372;-82
2022/01/10 07:25:50;;;;;;;21.98;11.40;;;0.40;99.90;;;;;;6185949;23;20009;-82
2022/01/10 07:28:16;;;;;;;23.67;10.80;;;0.40;99.90;;;;;;6186312;23;20039;-83
2022/01/10 07:30:42;;;;;;;25.02;10.65;;;0.40;99.90;;;;;;6159579;23;20004;-82
2022/01/10 07:33:07;;;;;;;24.10;10.20;;;0.40;99.90;;;;;;6185880;23;20071;-82
2022/01/10 07:35:33;;;;;;;18.42;8.98;;;0.40;99.90;;;;;;6184561;23;20016;-82
2022/01/10 07:37:59;;;;;;;26.77;12.65;;;0.30;99.90;;;;;;6184153;23;20016;-81
2022/01/10 07:40:25;;;;;;;18.70;10.40;;;0.30;99.90;;;;;;6184024;23;20332;-82
2022/01/10 07:42:51;;;;;;;23.30;12.00;;;0.30;99.90;;;;;;6183015;23;20025;-82
2022/01/10 07:45:17;;;;;;;23.85;10.15;;;0.30;99.90;;;;;;6157894;23;20017;-82
2022/01/10 07:47:43;;;;;;;32.53;13.88;;;0.30;99.90;;;;;;6181688;23;20438;-82
2022/01/10 07:50:09;;;;;;;25.88;12.23;;;0.30;99.90;;;;;;6181094;23;20055;-82
2022/01/10 07:52:35;;;;;;;19.95;10.70;;;0.30;99.90;;;;;;6181602;23;20059;-82
2022/01/10 07:55:01;;;;;;;24.13;11.00;;;0.30;99.90;;;;;;6182116;23;20016;-82
2022/01/10 07:57:26;;;;;;;24.65;12.52;;;0.30;99.90;;;;;;6183619;23;20512;-82
2022/01/10 07:59:52;;;;;;;26.73;12.80;;;0.30;99.90;;;;;;6158234;23;20013;-82
2022/01/10 08:02:21;;;;;;;22.83;11.85;;;0.30;99.90;;;;;;6181890;23;20020;-82
2022/01/10 08:04:50;;;;;;;20.35;10.90;;;0.30;99.90;;;;;;6157376;23;20022;-82
2022/01/10 08:07:15;;;;;;;25.20;12.27;;;0.30;99.90;;;;;;6157369;23;20012;-82
2022/01/10 08:09:41;;;;;;;25.17;12.68;;;0.30;99.90;;;;;;6181570;23;20017;-82
2022/01/10 08:12:07;;;;;;;23.58;12.55;;;0.30;99.90;;;;;;6183467;23;20415;-82
2022/01/10 08:14:33;;;;;;;28.58;13.02;;;0.30;99.90;;;;;;6182590;23;20013;-82
2022/01/10 08:17:00;;;;;;;17.60;10.15;;;0.30;99.90;;;;;;6183793;23;20315;-82
2022/01/10 08:19:31;;;;;;;16.73;9.40;;;0.30;99.90;;;;;;6182184;23;20023;-82
2022/01/10 08:21:57;;;;;;;20.15;10.57;;;0.30;99.90;;;;;;6182414;23;20051;-82
2022/01/10 08:24:24;;;;;;;21.30;11.20;;;0.30;99.90;;;;;;6182252;23;20016;-82
2022/01/10 08:26:50;;;;;;;34.67;13.70;;;0.30;99.90;;;;;;6183828;23;20095;-82
2022/01/10 08:29:16;;;;;;;22.23;11.55;;;0.30;99.90;;;;;;6183967;23;20004;-82
2022/01/10 08:31:42;;;;;;;27.80;10.55;;;0.30;99.90;;;;;;6182717;23;20005;-82
2022/01/10 08:34:08;;;;;;;29.50;13.52;;;0.30;99.90;;;;;;6182642;23;20026;-82
2022/01/10 08:36:34;;;;;;;20.58;11.40;;;0.30;99.90;;;;;;6183077;23;20101;-82
2022/01/10 08:39:01;;;;;;;28.27;12.65;;;0.30;99.90;;;;;;6158049;23;20034;-82
2022/01/10 08:41:29;;;;;;;18.35;9.95;;;0.30;99.90;;;;;;6183556;23;20443;-82
2022/01/10 08:43:55;;;;;;;23.38;11.95;;;0.40;99.90;;;;;;6183830;23;20478;-82
2022/01/10 08:46:22;;;;;;;23.77;12.85;;;0.40;99.90;;;;;;6182358;23;20051;-82
2022/01/10 08:48:48;;;;;;;26.00;14.35;;;0.40;99.90;;;;;;6184054;23;20018;-82
2022/01/10 08:51:14;;;;;;;25.58;13.52;;;0.50;99.90;;;;;;6182599;23;20450;-82
2022/01/10 08:53:39;;;;;;;23.88;12.70;;;0.50;99.90;;;;;;6183446;23;20016;-82
2022/01/10 08:56:05;;;;;;;24.67;11.93;;;0.60;99.90;;;;;;6184107;23;20632;-82
2022/01/10 08:58:33;;;;;;;25.75;12.95;;;0.60;99.90;;;;;;6159530;23;20343;-82
2022/01/10 09:01:00;;;;;;;28.80;13.93;;;0.60;99.90;;;;;;6185216;23;20123;-83
2022/01/10 09:03:26;;;;;;;24.65;15.15;;;0.70;99.90;;;;;;6186447;23;20013;-82
2022/01/10 09:05:54;;;;;;;26.23;14.75;;;0.70;99.90;;;;;;6186398;23;20024;-83
2022/01/10 09:08:21;;;;;;;27.73;13.98;;;0.70;99.90;;;;;;6185600;23;20013;-82
2022/01/10 09:10:47;;;;;;;27.67;14.88;;;0.80;99.90;;;;;;6160672;23;20024;-82
2022/01/10 09:13:12;;;;;;;34.65;16.25;;;0.80;99.90;;;;;;6184582;23;20012;-82
2022/01/10 09:15:38;;;;;;;29.95;16.52;;;0.90;99.90;;;;;;6186172;23;20039;-82
2022/01/10 09:18:04;;;;;;;29.73;15.10;;;0.90;99.90;;;;;;6161675;23;20466;-82
2022/01/10 09:20:30;;;;;;;29.20;15.77;;;1.00;99.90;;;;;;6186072;23;20291;-81
2022/01/10 09:22:56;;;;;;;27.98;16.10;;;1.00;99.90;;;;;;6185078;23;20031;-81
2022/01/10 09:25:22;;;;;;;34.72;17.05;;;1.00;99.90;;;;;;6160334;23;20019;-82
2022/01/10 09:27:48;;;;;;;30.05;13.77;;;1.10;99.90;;;;;;6186915;23;20017;-82
2022/01/10 09:30:14;;;;;;;33.40;16.15;;;1.10;99.90;;;;;;6162612;23;20099;-82
2022/01/10 09:32:41;;;;;;;44.35;18.80;;;1.10;99.90;;;;;;6188783;23;20571;-81
2022/01/10 09:35:07;;;;;;;30.52;15.13;;;1.20;99.90;;;;;;6189365;23;20015;-82
2022/01/10 09:37:33;;;;;;;30.38;15.88;;;1.20;99.90;;;;;;6189271;23;20455;-82
2022/01/10 09:39:59;;;;;;;28.58;15.55;;;1.30;99.90;;;;;;6190128;23;20031;-82
2022/01/10 09:42:25;;;;;;;38.95;18.58;;;1.30;99.90;;;;;;6215078;23;20415;-82
2022/01/10 09:44:51;;;;;;;32.47;15.27;;;1.30;99.90;;;;;;6162948;23;20431;-82
2022/01/10 09:54:40;;;;;;;33.08;15.20;;;1.50;99.90;;;;;;6202909;23;20439;-83
2022/01/10 09:57:55;;;;;;;29.63;16.70;;;1.60;99.90;;;;;;6159157;23;20040;-82
2022/01/10 10:16:15;;;;;;;31.70;15.63;;;2.10;99.90;;;;;;5951869;24;20531;-83
2022/01/10 10:22:53;;;;;;;32.87;18.60;;;2.20;99.90;;;;;;5843534;24;20033;-83
2022/01/10 10:48:34;;;;;;;28.52;14.75;;;3.00;99.90;;;;;;6003269;23;20497;-83
2022/01/10 10:51:01;;;;;;;30.05;16.33;;;3.10;99.90;;;;;;6052574;23;20102;-83
2022/01/10 10:53:29;;;;;;;30.13;16.33;;;3.20;99.90;;;;;;6068846;23;20327;-83
2022/01/10 10:56:03;;;;;;;24.60;14.73;;;3.30;99.90;;;;;;6070127;23;20019;-83
2022/01/10 10:58:30;;;;;;;25.83;15.80;;;3.50;99.90;;;;;;6066223;23;20089;-82
2022/01/10 11:00:56;;;;;;;27.45;15.57;;;3.90;99.90;;;;;;6179567;23;20067;-81
2022/01/10 11:03:23;;;;;;;23.38;13.85;;;4.40;99.90;;;;;;6152744;23;20016;-81
2022/01/10 11:05:50;;;;;;;23.77;13.77;;;5.00;99.90;;;;;;6154576;23;20017;-81
2022/01/10 11:08:16;;;;;;;24.77;13.73;;;5.50;99.90;;;;;;6153524;23;20012;-82
2022/01/10 11:10:41;;;;;;;27.38;13.63;;;6.00;99.90;;;;;;6152669;23;20075;-81
2022/01/10 11:13:08;;;;;;;18.35;11.77;;;6.30;99.90;;;;;;6154082;23;20351;-82
2022/01/10 11:15:46;;;;;;;22.85;12.80;;;6.50;99.90;;;;;;6154653;23;20017;-82
2022/01/10 11:18:15;;;;;;;20.10;12.20;;;6.70;99.90;;;;;;6154984;23;20052;-82
2022/01/10 11:20:46;;;;;;;19.50;11.80;;;6.80;99.90;;;;;;6154777;23;20013;-83
2022/01/10 11:23:12;;;;;;;18.35;10.60;;;6.90;99.90;;;;;;6156192;23;20013;-83
2022/01/10 11:25:40;;;;;;;19.90;11.13;;;7.10;99.90;;;;;;6153182;23;20056;-82
2022/01/10 11:28:23;;;;;;;19.55;11.48;;;7.30;99.90;;;;;;6131232;23;20470;-83
2022/01/10 11:30:51;;;;;;;25.08;12.38;;;7.30;99.90;;;;;;6129506;23;20013;-83
2022/01/10 11:33:19;;;;;;;18.08;10.82;;;7.40;99.90;;;;;;6155161;23;20376;-83
2022/01/10 11:35:55;;;;;;;19.20;10.75;;;7.40;99.90;;;;;;6130117;23;20013;-83
2022/01/10 11:38:46;;;;;;;16.63;11.27;;;7.70;99.90;;;;;;6129683;23;20028;-82
2022/01/10 11:41:15;;;;;;;71.30;18.25;;;8.10;99.90;;;;;;6130780;23;20013;-82
2022/01/10 11:43:56;;;;;;;16.58;10.77;;;8.40;99.90;;;;;;6154465;23;20495;-83
2022/01/10 11:46:26;;;;;;;19.23;11.13;;;8.70;99.90;;;;;;6154106;23;20467;-82
2022/01/10 11:48:56;;;;;;;34.35;12.45;;;8.80;99.90;;;;;;6129667;23;20020;-83
2022/01/10 11:51:26;;;;;;;14.82;9.93;;;9.10;99.90;;;;;;6154416;23;20019;-83
2022/01/10 11:54:06;;;;;;;18.40;9.95;;;9.30;99.90;;;;;;6135734;23;20024;-82
2022/01/10 11:56:33;;;;;;;15.20;10.25;;;9.30;99.90;;;;;;6178685;23;20013;-82
2022/01/10 11:59:45;;;;;;;18.40;11.23;;;9.40;99.90;;;;;;6204190;23;20017;-82
2022/01/10 12:02:14;;;;;;;17.20;9.85;;;9.50;99.90;;;;;;6174628;23;20463;-82
2022/01/10 12:04:48;;;;;;;15.63;10.13;;;9.30;99.90;;;;;;6153002;23;20444;-82
2022/01/10 12:07:20;;;;;;;18.35;10.15;;;9.50;99.90;;;;;;6154514;23;20023;-82
2022/01/10 12:09:46;;;;;;;18.98;10.10;;;9.70;99.90;;;;;;6177121;23;20059;-82
2022/01/10 12:12:14;;;;;;;16.65;9.48;;;9.90;99.90;;;;;;6203004;23;20418;-82
2022/01/10 12:14:42;;;;;;;16.23;9.95;;;10.10;99.90;;;;;;6178280;23;20013;-82
2022/01/10 12:17:08;;;;;;;17.00;9.63;;;10.20;99.90;;;;;;6154730;23;20021;-82
2022/01/10 12:19:34;;;;;;;15.20;10.50;;;10.30;99.90;;;;;;6179854;23;20013;-82
2022/01/10 12:22:00;;;;;;;15.38;9.50;;;10.50;99.90;;;;;;6154299;23;20020;-83
2022/01/10 12:24:26;;;;;;;15.88;10.25;;;10.60;99.90;;;;;;6179954;23;20064;-82
2022/01/10 12:26:52;;;;;;;16.98;11.43;;;10.80;99.90;;;;;;6153861;23;20013;-82
2022/01/10 12:29:17;;;;;;;21.13;11.57;;;11.10;99.90;;;;;;6177648;23;20013;-83
2022/01/10 12:31:45;;;;;;;19.30;12.18;;;11.10;99.90;;;;;;6203531;23;20009;-83
2022/01/10 12:34:13;;;;;;;21.98;11.55;;;11.20;99.90;;;;;;6153990;23;20368;-83
2022/01/10 12:36:40;;;;;;;16.75;11.32;;;11.30;99.90;;;;;;6180022;23;20452;-83
2022/01/10 12:39:30;;;;;;;17.58;11.25;;;11.00;99.90;;;;;;6180901;23;20391;-83
2022/01/10 12:41:58;;;;;;;15.57;9.70;;;10.80;99.90;;;;;;6156724;23;20044;-83
2022/01/10 12:44:25;;;;;;;16.60;10.35;;;11.00;99.90;;;;;;6181168;23;20017;-82
2022/01/10 12:46:51;;;;;;;17.55;11.07;;;10.80;99.90;;;;;;6180030;23;20020;-83
2022/01/10 12:49:17;;;;;;;16.00;9.85;;;10.80;99.90;;;;;;6157025;23;20039;-82
2022/01/10 12:51:46;;;;;;;18.33;10.80;;;11.00;99.90;;;;;;6180897;23;20455;-82
2022/01/10 12:54:21;;;;;;;16.20;10.60;;;11.30;99.90;;;;;;6178178;23;20025;-82
2022/01/10 12:56:48;;;;;;;16.00;9.98;;;11.20;99.90;;;;;;6204331;23;20056;-82
2022/01/10 12:59:16;;;;;;;16.65;10.70;;;10.80;99.90;;;;;;6178236;23;20025;-82
2022/01/10 13:01:43;;;;;;;18.08;10.10;;;10.50;99.90;;;;;;6179164;23;20075;-83
2022/01/10 13:04:09;;;;;;;14.75;9.70;;;10.40;99.90;;;;;;6155562;23;20096;-83
2022/01/10 13:06:38;;;;;;;20.45;11.93;;;10.20;99.90;;;;;;6181114;23;20036;-83
2022/01/10 13:09:05;;;;;;;21.35;11.32;;;10.00;99.90;;;;;;6156172;23;20012;-83
2022/01/10 13:11:42;;;;;;;15.68;11.10;;;9.50;99.90;;;;;;6156914;23;20071;-83
2022/01/10 13:14:09;;;;;;;13.77;9.57;;;9.30;99.90;;;;;;6182248;23;20059;-83
2022/01/10 13:16:35;;;;;;;15.23;10.55;;;9.10;99.90;;;;;;6156362;23;20443;-83
2022/01/10 13:19:07;;;;;;;17.27;10.45;;;8.80;99.90;;;;;;6180834;23;20463;-83
2022/01/10 13:21:42;;;;;;;17.37;10.23;;;8.50;99.90;;;;;;6181881;23;20021;-83
2022/01/10 13:24:11;;;;;;;14.15;9.75;;;8.40;99.90;;;;;;6179906;23;20301;-82
2022/01/10 13:27:03;;;;;;;14.20;9.90;;;8.40;99.90;;;;;;6181082;23;20379;-83
2022/01/10 13:29:40;;;;;;;20.88;11.00;;;8.30;99.90;;;;;;6157650;23;20021;-83
2022/01/10 13:32:24;;;;;;;18.08;11.00;;;8.20;99.90;;;;;;6187032;23;20013;-83
2022/01/10 13:35:12;;;;;;;20.92;11.48;;;8.00;99.90;;;;;;6186718;23;20036;-82
2022/01/10 13:37:51;;;;;;;19.10;10.38;;;7.90;99.90;;;;;;6159920;23;20043;-83
2022/01/10 13:40:22;;;;;;;15.10;9.63;;;7.90;99.90;;;;;;6159228;23;20013;-82
2022/01/10 13:43:04;;;;;;;16.38;11.77;;;7.80;99.90;;;;;;6185180;23;20066;-82
2022/01/10 13:45:41;;;;;;;19.75;12.75;;;7.70;99.90;;;;;;6185532;23;20028;-83
2022/01/10 13:48:18;;;;;;;24.23;12.77;;;7.60;99.90;;;;;;6186221;23;20346;-82